createdAt,value
2022-07-29T00:02:00.217Z,454.77
2022-07-29T00:04:31.670Z,453.52
2022-07-29T00:07:03.327Z,438.80
2022-07-29T00:09:42.960Z,455.45
2022-07-29T00:12:26.471Z,442.20
2022-07-29T00:14:58.893Z,446.55
2022-07-29T00:17:30.517Z,466.90
2022-07-29T00:20:01.785Z,445.73
2022-07-29T00:22:33.608Z,443.42
2022-07-29T00:25:08.322Z,442.33
2022-07-29T00:27:40.758Z,441.67
2022-07-29T00:32:43.989Z,443.70
2022-07-29T00:35:27.690Z,435.25
2022-07-29T00:37:59.338Z,444.25
2022-07-29T00:40:33.315Z,455.80
2022-07-29T00:43:05.591Z,438.50
2022-07-29T00:45:36.993Z,447.00
2022-07-29T00:48:09.983Z,440.85
2022-07-29T00:50:43.212Z,433.23
2022-07-29T00:53:16.822Z,435.42
2022-07-29T00:55:52.735Z,434.73
2022-07-29T00:58:25.265Z,437.45
2022-07-29T01:00:57.185Z,432.65
2022-07-29T01:06:00.315Z,429.58
2022-07-29T01:11:06.305Z,414.67
2022-07-29T01:13:38.485Z,411.73
2022-07-29T01:16:17.060Z,440.23
2022-07-29T01:18:51.522Z,436.50
2022-07-29T01:21:48.846Z,439.33
2022-07-29T01:24:37.470Z,434.25
2022-07-29T01:27:24.074Z,443.40
2022-07-29T01:30:01.769Z,444.02
2022-07-29T01:32:40.278Z,444.13
2022-07-29T01:35:20.903Z,430.08
2022-07-29T01:37:59.546Z,424.15
2022-07-29T01:40:37.418Z,434.95
2022-07-29T01:43:14.521Z,432.17
2022-07-29T01:45:52.820Z,430.38
2022-07-29T01:48:27.293Z,426.63
2022-07-29T01:51:08.362Z,417.35
2022-07-29T01:53:46.486Z,420.55
2022-07-29T01:56:20.706Z,443.70
2022-07-29T01:58:53.122Z,439.42
2022-07-29T02:01:29.731Z,447.20
2022-07-29T02:04:03.439Z,437.33
2022-07-29T02:06:39.197Z,445.75
2022-07-29T02:09:12.161Z,437.35
2022-07-29T02:11:46.886Z,431.58
2022-07-29T02:14:19.811Z,431.60
2022-07-29T02:16:58.196Z,428.63
2022-07-29T02:19:31.355Z,422.70
2022-07-29T02:22:03.922Z,436.65
2022-07-29T02:24:35.442Z,439.65
2022-07-29T02:27:08.425Z,429.77
2022-07-29T02:29:40.759Z,436.83
2022-07-29T02:32:17.754Z,444.88
2022-07-29T02:34:50.431Z,422.30
2022-07-29T02:37:23.549Z,432.42
2022-07-29T02:39:57.821Z,435.30
2022-07-29T02:42:31.490Z,441.35
2022-07-29T02:45:02.742Z,450.15
2022-07-29T02:47:43.827Z,436.83
2022-07-29T02:50:19.318Z,437.98
2022-07-29T02:52:58.286Z,425.52
2022-07-29T02:55:33.711Z,433.33
2022-07-29T02:58:07.404Z,442.52
2022-07-29T03:00:42.465Z,444.52
2022-07-29T03:03:21.202Z,438.67
2022-07-29T03:05:52.538Z,435.35
2022-07-29T03:08:24.738Z,431.33
2022-07-29T03:10:56.896Z,441.38
2022-07-29T03:13:29.764Z,446.67
2022-07-29T03:16:01.936Z,445.30
2022-07-29T03:18:37.225Z,444.20
2022-07-29T03:21:08.804Z,437.70
2022-07-29T03:23:40.348Z,440.33
2022-07-29T03:26:11.638Z,437.73
2022-07-29T03:28:43.284Z,440.33
2022-07-29T03:31:14.593Z,433.52
2022-07-29T03:33:48.661Z,443.15
2022-07-29T03:36:19.940Z,442.02
2022-07-29T03:38:52.724Z,433.40
2022-07-29T03:41:26.521Z,446.73
2022-07-29T03:43:59.075Z,437.45
2022-07-29T03:46:32.782Z,438.55
2022-07-29T03:49:09.386Z,437.85
2022-07-29T03:51:41.113Z,434.27
2022-07-29T03:54:12.816Z,439.85
2022-07-29T03:56:47.885Z,441.25
2022-07-29T03:59:21.650Z,432.02
2022-07-29T04:01:53.995Z,438.67
2022-07-29T04:04:29.407Z,423.92
2022-07-29T04:07:00.658Z,428.85
2022-07-29T04:09:32.137Z,428.38
2022-07-29T04:12:04.401Z,437.15
2022-07-29T04:14:37.006Z,430.48
2022-07-29T04:19:42.945Z,431.50
2022-07-29T04:22:14.151Z,418.42
2022-07-29T04:24:45.562Z,433.30
2022-07-29T04:27:16.662Z,436.58
2022-07-29T04:29:56.721Z,440.92
2022-07-29T04:32:28.796Z,457.75
2022-07-29T04:35:02.849Z,466.25
2022-07-29T04:37:34.137Z,467.25
2022-07-29T04:40:05.706Z,448.10
2022-07-29T04:42:45.059Z,460.52
2022-07-29T04:45:22.532Z,454.98
2022-07-29T04:47:54.232Z,445.15
2022-07-29T04:50:28.669Z,455.38
2022-07-29T04:52:59.913Z,461.98
2022-07-29T04:55:31.462Z,460.60
2022-07-29T04:58:02.787Z,481.02
2022-07-29T05:00:34.248Z,481.50
2022-07-29T05:03:05.502Z,488.35
2022-07-29T05:05:40.708Z,500.17
2022-07-29T05:08:12.033Z,508.08
2022-07-29T05:10:43.591Z,501.50
2022-07-29T05:13:14.894Z,521.92
2022-07-29T05:15:46.594Z,519.67
2022-07-29T05:18:18.026Z,520.22
2022-07-29T05:20:52.172Z,517.53
2022-07-29T05:23:23.429Z,512.80
2022-07-29T05:25:54.996Z,530.17
2022-07-29T05:28:26.212Z,536.50
2022-07-29T05:30:57.780Z,542.03
2022-07-29T05:33:35.091Z,543.75
2022-07-29T05:36:11.408Z,554.10
2022-07-29T05:38:42.974Z,551.95
2022-07-29T05:41:14.513Z,546.72
2022-07-29T05:43:45.734Z,555.60
2022-07-29T05:46:17.876Z,550.40
2022-07-29T05:48:49.262Z,547.60
2022-07-29T05:51:23.630Z,552.42
2022-07-29T05:53:54.958Z,551.22
2022-07-29T05:56:26.466Z,553.28
2022-07-29T05:58:58.027Z,565.33
2022-07-29T06:01:30.080Z,557.20
2022-07-29T06:06:35.386Z,557.40
2022-07-29T06:09:12.229Z,568.17
2022-07-29T06:11:44.240Z,557.25
2022-07-29T06:14:15.806Z,570.95
2022-07-29T06:16:47.637Z,563.03
2022-07-29T06:19:18.972Z,565.00
2022-07-29T06:21:53.131Z,569.67
2022-07-29T06:24:24.383Z,571.13
2022-07-29T06:29:26.910Z,569.28
2022-07-29T06:31:58.388Z,572.70
2022-07-29T06:34:29.652Z,581.10
2022-07-29T06:37:09.267Z,577.90
2022-07-29T06:39:47.209Z,578.90
2022-07-29T06:42:18.811Z,578.17
2022-07-29T06:44:51.779Z,576.22
2022-07-29T06:49:54.340Z,567.65
2022-07-29T06:52:28.524Z,569.67
2022-07-29T06:55:00.825Z,572.28
2022-07-29T06:57:32.288Z,570.42
2022-07-29T07:00:05.488Z,579.45
2022-07-29T07:02:37.142Z,587.80
2022-07-29T07:05:10.087Z,586.50
2022-07-29T07:07:44.340Z,574.47
2022-07-29T07:10:16.039Z,586.47
2022-07-29T07:12:47.684Z,583.60
2022-07-29T07:15:22.871Z,586.28
2022-07-29T07:18:11.028Z,587.30
2022-07-29T07:20:42.332Z,591.75
2022-07-29T07:23:16.496Z,591.50
2022-07-29T07:25:47.684Z,577.80
2022-07-29T07:28:19.236Z,586.88
2022-07-29T07:30:56.422Z,595.25
2022-07-29T07:33:28.044Z,591.97
2022-07-29T07:35:59.671Z,592.67
2022-07-29T07:38:33.810Z,580.92
2022-07-29T07:41:05.597Z,579.88
2022-07-29T07:43:37.127Z,583.45
2022-07-29T07:46:08.620Z,581.58
2022-07-29T07:48:40.718Z,585.80
2022-07-29T07:51:12.811Z,581.15
2022-07-29T07:53:50.588Z,583.08
2022-07-29T07:56:22.125Z,580.10
2022-07-29T07:58:54.357Z,574.13
2022-07-29T08:01:25.798Z,582.80
2022-07-29T08:03:57.564Z,586.25
2022-07-29T08:06:28.941Z,582.90
2022-07-29T08:09:26.650Z,583.70
2022-07-29T08:11:54.610Z,590.67
2022-07-29T08:16:56.954Z,570.58
2022-07-29T08:19:28.694Z,587.67
2022-07-29T08:21:59.934Z,586.17
2022-07-29T08:24:46.382Z,582.78
2022-07-29T08:27:41.931Z,582.85
2022-07-29T08:30:11.830Z,582.97
2022-07-29T08:32:53.615Z,599.90
2022-07-29T08:35:30.926Z,583.30
2022-07-29T08:38:04.693Z,591.17
2022-07-29T08:43:10.741Z,595.35
2022-07-29T08:45:48.575Z,593.60
2022-07-29T08:48:22.216Z,597.97
2022-07-29T08:51:01.627Z,597.75
2022-07-29T08:53:34.292Z,598.15
2022-07-29T08:56:09.970Z,601.67
2022-07-29T08:58:41.225Z,595.88
2022-07-29T09:01:15.825Z,602.25
2022-07-29T09:03:50.045Z,607.08
2022-07-29T09:06:27.762Z,608.45
2022-07-29T09:09:02.280Z,611.70
2022-07-29T09:11:36.736Z,603.72
2022-07-29T09:14:08.097Z,609.00
2022-07-29T09:19:32.804Z,597.15
2022-07-29T09:22:06.340Z,596.40
2022-07-29T09:24:43.187Z,612.20
2022-07-29T09:27:27.099Z,612.88
2022-07-29T09:30:02.580Z,605.15
2022-07-29T09:32:35.630Z,602.97
2022-07-29T09:37:51.758Z,600.50
2022-07-29T09:40:24.689Z,601.15
2022-07-29T09:42:59.491Z,606.55
2022-07-29T09:45:33.165Z,607.47
2022-07-29T09:48:18.406Z,595.60
2022-07-29T09:50:50.928Z,607.33
2022-07-29T09:53:36.301Z,609.03
2022-07-29T09:56:08.736Z,606.92
2022-07-29T09:58:43.852Z,609.63
2022-07-29T10:01:16.236Z,604.95
2022-07-29T10:03:57.078Z,609.67
2022-07-29T10:06:28.372Z,607.53
2022-07-29T10:09:12.178Z,608.17
2022-07-29T10:11:49.487Z,608.28
2022-07-29T10:14:24.114Z,602.90
2022-07-29T10:16:55.599Z,608.20
2022-07-29T10:19:27.579Z,610.83
2022-07-29T10:22:00.175Z,615.03
2022-07-29T10:24:33.690Z,598.00
2022-07-29T10:27:06.857Z,610.45
2022-07-29T10:29:41.149Z,609.13
2022-07-29T10:32:27.611Z,607.45
2022-07-29T10:35:42.421Z,593.00
2022-07-29T10:38:48.070Z,607.60
2022-07-29T10:41:44.733Z,604.47
2022-07-29T10:44:23.198Z,598.50
2022-07-29T10:46:58.498Z,598.88
2022-07-29T10:49:31.699Z,611.85
2022-07-29T10:52:06.875Z,601.38
2022-07-29T10:54:47.389Z,618.70
2022-07-29T10:57:21.878Z,605.83
2022-07-29T11:00:36.310Z,604.63
2022-07-29T11:03:11.792Z,607.67
2022-07-29T11:05:59.804Z,610.65
2022-07-29T11:08:32.021Z,612.78
2022-07-29T11:11:37.999Z,617.00
2022-07-29T11:14:10.662Z,611.65
2022-07-29T11:17:06.928Z,613.70
2022-07-29T11:19:46.801Z,611.40
2022-07-29T11:22:36.658Z,615.30
2022-07-29T11:25:17.827Z,609.58
2022-07-29T11:27:50.032Z,607.03
2022-07-29T11:30:25.118Z,610.60
2022-07-29T11:32:56.542Z,602.72
2022-07-29T11:35:38.260Z,609.90
2022-07-29T11:38:31.879Z,612.28
2022-07-29T11:41:27.132Z,605.85
2022-07-29T11:44:01.572Z,606.63
2022-07-29T11:46:50.976Z,612.17
2022-07-29T11:49:32.408Z,612.30
2022-07-29T11:52:08.321Z,607.25
2022-07-29T11:54:58.095Z,606.20
2022-07-29T11:57:35.965Z,619.42
2022-07-29T12:00:12.526Z,618.63
2022-07-29T12:02:48.458Z,608.80
2022-07-29T12:10:48.144Z,623.22
2022-07-29T12:13:22.397Z,622.38
2022-07-29T12:15:59.763Z,616.70
2022-07-29T12:18:31.905Z,623.30
2022-07-29T12:21:05.365Z,618.45
2022-07-29T12:23:39.627Z,621.05
2022-07-29T12:26:25.499Z,622.05
2022-07-29T12:28:57.814Z,618.15
2022-07-29T12:31:42.230Z,624.03
2022-07-29T12:34:16.390Z,620.28
2022-07-29T12:36:47.999Z,621.42
2022-07-29T12:39:22.866Z,614.30
2022-07-29T12:41:54.239Z,613.42
2022-07-29T12:44:50.526Z,613.03
2022-07-29T12:47:23.224Z,618.85
2022-07-29T12:50:10.842Z,611.50
2022-07-29T12:52:42.169Z,619.22
2022-07-29T12:55:16.482Z,630.03
2022-07-29T12:57:51.841Z,624.28
2022-07-29T13:00:27.742Z,620.42
2022-07-29T13:03:00.173Z,617.50
2022-07-29T13:05:49.154Z,627.15
2022-07-29T13:08:22.916Z,614.05
2022-07-29T13:10:57.555Z,628.83
2022-07-29T13:13:28.845Z,619.67
2022-07-29T13:16:11.730Z,621.70
2022-07-29T13:18:42.992Z,626.25
2022-07-29T13:21:16.133Z,624.33
2022-07-29T13:23:47.807Z,628.17
2022-07-29T13:26:22.058Z,617.53
2022-07-29T13:28:53.344Z,626.72
2022-07-29T13:31:25.837Z,624.78
2022-07-29T13:33:57.541Z,625.83
2022-07-29T13:36:29.110Z,620.92
2022-07-29T13:39:02.292Z,632.83
2022-07-29T13:41:36.616Z,623.67
2022-07-29T13:44:08.486Z,624.70
2022-07-29T13:46:40.254Z,620.30
2022-07-29T13:51:44.160Z,623.72
2022-07-29T13:54:15.691Z,629.15
2022-07-29T13:56:49.997Z,628.90
2022-07-29T13:59:21.294Z,617.92
2022-07-29T14:01:53.218Z,622.13
2022-07-29T14:04:24.703Z,612.00
2022-07-29T14:06:56.384Z,620.78
2022-07-29T14:09:27.701Z,627.28
2022-07-29T14:12:03.610Z,624.67
2022-07-29T14:14:38.054Z,621.55
2022-07-29T14:17:10.195Z,619.20
2022-07-29T14:19:41.759Z,618.47
2022-07-29T14:22:13.799Z,618.10
2022-07-29T14:24:45.317Z,621.30
2022-07-29T14:27:20.110Z,614.60
2022-07-29T14:30:11.253Z,622.55
2022-07-29T14:32:43.029Z,619.13
2022-07-29T14:35:34.393Z,618.53
2022-07-29T14:40:37.644Z,621.97
2022-07-29T14:43:11.901Z,619.65
2022-07-29T14:45:43.346Z,618.83
2022-07-29T14:48:15.178Z,621.75
2022-07-29T14:53:17.842Z,617.92
2022-07-29T14:58:23.848Z,605.92
2022-07-29T15:00:55.881Z,620.50
2022-07-29T15:03:29.009Z,624.13
2022-07-29T15:06:00.697Z,615.70
2022-07-29T15:08:32.473Z,617.67
2022-07-29T15:13:37.848Z,616.17
2022-07-29T15:16:10.402Z,619.03
2022-07-29T15:18:43.312Z,625.72
2022-07-29T15:21:15.335Z,625.10
2022-07-29T15:23:47.098Z,616.22
2022-07-29T15:26:19.227Z,621.70
2022-07-29T15:28:53.686Z,614.53
2022-07-29T15:31:25.277Z,626.63
2022-07-29T15:33:59.444Z,622.25
2022-07-29T15:39:25.200Z,626.53
2022-07-29T15:41:56.797Z,618.47
2022-07-29T15:44:31.112Z,625.25
2022-07-29T15:47:09.095Z,625.65
2022-07-29T15:49:46.676Z,616.15
2022-07-29T15:52:25.760Z,618.38
2022-07-29T15:54:58.744Z,625.60
2022-07-29T15:57:29.970Z,622.15
2022-07-29T16:02:39.295Z,617.15
2022-07-29T16:05:11.119Z,612.05
2022-07-29T16:10:13.409Z,608.37
2022-07-29T16:12:44.719Z,600.75
2022-07-29T16:17:50.582Z,611.30
2022-07-29T16:20:22.565Z,606.60
2022-07-29T16:22:54.083Z,607.22
2022-07-29T16:25:49.997Z,612.47
2022-07-29T16:30:00.246Z,673.97
2022-07-29T16:32:33.857Z,664.08
2022-07-29T16:35:05.588Z,670.58
2022-07-29T16:37:38.191Z,669.78
2022-07-29T16:40:11.987Z,675.47
2022-07-29T16:42:47.081Z,675.65
2022-07-29T16:45:21.655Z,674.92
2022-07-29T16:47:57.202Z,672.15
2022-07-29T16:50:31.935Z,673.60
2022-07-29T16:53:03.788Z,666.72
2022-07-29T16:55:35.290Z,666.13
2022-07-29T16:58:07.181Z,675.40
2022-07-29T17:00:41.985Z,673.15
2022-07-29T17:03:13.670Z,675.17
2022-07-29T17:05:52.338Z,670.47
2022-07-29T17:08:26.522Z,668.20
2022-07-29T17:10:57.880Z,666.67
2022-07-29T17:16:02.867Z,673.75
2022-07-29T17:18:34.520Z,668.78
2022-07-29T17:21:06.042Z,670.78
2022-07-29T17:23:37.607Z,666.30
2022-07-29T17:26:09.012Z,666.13
2022-07-29T17:28:40.945Z,671.17
2022-07-29T17:31:15.896Z,660.95
2022-07-29T17:33:47.522Z,666.83
2022-07-29T17:36:28.013Z,661.78
2022-07-29T17:39:00.802Z,663.13
2022-07-29T17:41:32.307Z,662.53
2022-07-29T17:44:04.064Z,667.45
2022-07-29T17:46:38.183Z,663.30
2022-07-29T17:49:10.266Z,659.90
2022-07-29T17:51:41.697Z,664.08
2022-07-29T17:54:13.453Z,668.25
2022-07-29T17:59:16.126Z,659.05
2022-07-29T18:01:50.072Z,666.15
2022-07-29T18:04:23.636Z,670.10
2022-07-29T18:06:54.954Z,665.42
2022-07-29T18:09:26.668Z,668.33
2022-07-29T18:11:58.011Z,661.92
2022-07-29T18:14:29.575Z,662.42
2022-07-29T18:17:03.513Z,662.00
2022-07-29T18:19:35.023Z,667.53
2022-07-29T18:22:07.625Z,664.33
2022-07-29T18:24:39.299Z,658.25
2022-07-29T18:27:11.094Z,659.65
2022-07-29T18:29:42.625Z,657.80
2022-07-29T18:32:16.493Z,659.55
2022-07-29T18:34:48.178Z,658.00
2022-07-29T18:37:19.433Z,658.30
2022-07-29T18:40:13.199Z,665.70
2022-07-29T18:42:44.425Z,663.13
2022-07-29T18:47:53.611Z,657.92
2022-07-29T18:50:29.288Z,660.65
2022-07-29T18:53:03.471Z,662.67
2022-07-29T18:55:34.966Z,666.13
2022-07-29T18:58:06.303Z,664.95
2022-07-29T19:00:37.930Z,660.63
2022-07-29T19:03:12.108Z,664.05
2022-07-29T19:05:43.646Z,666.75
2022-07-29T19:08:14.930Z,664.13
2022-07-29T19:10:46.702Z,664.63
2022-07-29T19:13:18.101Z,657.33
2022-07-29T19:18:23.117Z,659.10
2022-07-29T19:20:54.734Z,656.35
2022-07-29T19:23:26.107Z,664.25
2022-07-29T19:28:29.079Z,654.87
2022-07-29T19:31:00.854Z,654.67
2022-07-29T19:33:34.928Z,663.15
2022-07-29T19:36:06.592Z,652.95
2022-07-29T19:38:38.418Z,664.72
2022-07-29T19:41:09.834Z,662.33
2022-07-29T19:43:51.149Z,659.03
2022-07-29T19:46:24.493Z,664.63
2022-07-29T19:48:59.014Z,663.17
2022-07-29T19:51:30.785Z,665.33
2022-07-29T19:54:02.130Z,668.55
2022-07-29T19:56:33.587Z,667.25
2022-07-29T19:59:07.284Z,663.28
2022-07-29T20:01:39.776Z,659.30
2022-07-29T20:04:13.693Z,663.90
2022-07-29T20:06:45.506Z,663.78
2022-07-29T20:09:20.361Z,659.90
2022-07-29T20:11:52.309Z,662.25
2022-07-29T20:14:23.718Z,668.67
2022-07-29T20:16:56.028Z,654.42
2022-07-29T20:19:31.058Z,661.90
2022-07-29T20:22:02.786Z,663.40
2022-07-29T20:24:34.425Z,658.38
2022-07-29T20:27:13.719Z,665.67
2022-07-29T20:29:45.560Z,663.17
2022-07-29T20:32:17.045Z,662.15
2022-07-29T20:34:50.909Z,665.10
2022-07-29T20:37:22.436Z,660.65
2022-07-29T20:39:53.628Z,661.20
2022-07-29T20:42:25.268Z,657.20
2022-07-29T20:44:58.089Z,666.10
2022-07-29T20:47:29.604Z,662.00
2022-07-29T20:50:03.964Z,661.05
2022-07-29T20:52:35.648Z,655.95
2022-07-29T20:55:07.757Z,655.15
2022-07-29T20:57:40.130Z,658.70
2022-07-29T21:00:12.665Z,653.58
2022-07-29T21:02:44.367Z,659.47
2022-07-29T21:05:18.291Z,652.25
2022-07-29T21:07:50.090Z,648.47
2022-07-29T21:10:21.684Z,657.63
2022-07-29T21:12:53.247Z,661.35
2022-07-29T21:15:24.920Z,661.00
2022-07-29T21:18:00.751Z,659.47
2022-07-29T21:20:34.729Z,665.85
2022-07-29T21:23:07.917Z,663.00
2022-07-29T21:25:39.493Z,663.03
2022-07-29T21:28:23.312Z,656.42
2022-07-29T21:30:54.608Z,665.97
2022-07-29T21:33:26.488Z,663.53
2022-07-29T21:36:42.438Z,660.38
2022-07-29T21:38:52.137Z,657.08
2022-07-29T21:41:23.372Z,652.85
2022-07-29T21:43:55.052Z,660.95
2022-07-29T21:46:29.796Z,657.47
2022-07-29T21:49:01.252Z,654.92
2022-07-29T21:51:35.206Z,661.95
2022-07-29T21:54:07.043Z,664.35
2022-07-29T21:56:39.693Z,661.20
2022-07-29T21:59:12.946Z,653.75
2022-07-29T22:01:44.425Z,656.25
2022-07-29T22:04:16.069Z,650.10
2022-07-29T22:06:50.070Z,663.97
2022-07-29T22:09:21.676Z,659.90
2022-07-29T22:11:53.041Z,662.92
2022-07-29T22:14:24.629Z,658.88
2022-07-29T22:16:58.305Z,664.08
2022-07-29T22:19:30.349Z,660.80
2022-07-29T22:22:04.969Z,658.00
2022-07-29T22:24:36.900Z,659.28
2022-07-29T22:27:08.627Z,655.22
2022-07-29T22:29:40.302Z,652.47
2022-07-29T22:32:11.604Z,663.10
2022-07-29T22:34:43.054Z,658.97
2022-07-29T22:37:16.908Z,655.50
2022-07-29T22:39:48.445Z,657.33
2022-07-29T22:42:19.825Z,654.45
2022-07-29T22:47:46.243Z,654.65
2022-07-29T22:50:13.748Z,652.45
2022-07-29T22:52:47.707Z,643.67
2022-07-29T22:55:19.210Z,657.15
2022-07-29T22:57:50.448Z,650.97
2022-07-29T23:00:22.207Z,654.38
2022-07-29T23:02:53.440Z,649.90
2022-07-29T23:05:24.944Z,650.85
2022-07-29T23:07:58.831Z,658.25
2022-07-29T23:10:30.808Z,646.75
2022-07-29T23:13:02.115Z,651.70
2022-07-29T23:18:04.521Z,646.70
2022-07-29T23:20:36.320Z,653.88
2022-07-29T23:23:10.104Z,660.53
2022-07-29T23:25:41.627Z,654.85
2022-07-29T23:28:13.402Z,652.78
2022-07-29T23:30:45.433Z,654.65
2022-07-29T23:33:16.706Z,656.83
2022-07-29T23:35:48.316Z,659.08
2022-07-29T23:38:22.167Z,653.83
2022-07-29T23:40:53.923Z,659.25
2022-07-29T23:43:25.241Z,650.78
2022-07-29T23:45:58.089Z,657.17
2022-07-29T23:48:31.959Z,651.83
2022-07-29T23:51:03.525Z,650.35
2022-07-29T23:53:38.906Z,651.08
2022-07-29T23:56:25.885Z,649.15
2022-07-29T23:58:57.303Z,660.72
